Time;durP1;ratioP1;P1;durP2;ratioP2;P2;SDS_P1;SDS_P2;PMS_P1;PMS_P2;Temp;Humidity;BMP_temperature;BMP_pressure;BME280_temperature;BME280_humidity;BME280_pressure;Samples;Min_cycle;Max_cycle;Signal;HPM_P1;HPM_P2
2023/02/15 00:01:33;;;;;;;66.73;21.63;;;;;;;4.51;64.96;99382.56;8417302;28;20228;-67
2023/02/15 00:05:36;;;;;;;27.30;19.03;;;;;;;4.88;63.98;99380.94;8417169;28;20298;-67
2023/02/15 00:09:40;;;;;;;25.30;18.90;;;;;;;4.67;64.18;99380.91;8417377;28;20225;-67
2023/02/15 00:13:45;;;;;;;23.93;18.40;;;;;;;4.83;64.06;99369.81;8416398;28;20230;-67
2023/02/15 00:17:50;;;;;;;32.30;17.73;;;;;;;4.89;63.45;99382.66;8416933;28;20228;-67
2023/02/15 00:21:53;;;;;;;26.00;19.20;;;;;;;4.58;64.07;99368.91;8416733;28;20242;-67
2023/02/15 00:26:04;;;;;;;24.73;18.63;;;;;;;4.57;62.47;99348.38;8416699;28;20302;-67
2023/02/15 00:30:10;;;;;;;27.70;18.17;;;;;;;4.73;62.49;99377.50;8416709;28;20235;-67
2023/02/15 00:34:15;;;;;;;29.90;16.27;;;;;;;4.08;64.29;99357.66;8416343;28;20247;-67
2023/02/15 00:38:17;;;;;;;37.30;16.77;;;;;;;4.33;63.11;99373.13;8416208;28;20223;-67
2023/02/15 00:42:20;;;;;;;28.17;16.30;;;;;;;3.76;66.54;99382.28;8416095;28;20232;-67
2023/02/15 00:46:24;;;;;;;61.53;17.20;;;;;;;3.30;66.67;99381.09;8416124;28;20228;-67
2023/02/15 00:50:27;;;;;;;34.13;17.97;;;;;;;3.74;65.25;99374.56;8415745;28;20232;-66
2023/02/15 00:54:29;;;;;;;27.67;16.50;;;;;;;3.56;67.70;99372.78;8415947;28;20232;-67
2023/02/15 00:58:32;;;;;;;22.53;16.50;;;;;;;3.65;66.52;99371.94;8415607;28;20388;-67
2023/02/15 01:02:36;;;;;;;33.50;17.17;;;;;;;3.09;67.29;99370.72;8414148;28;20248;-67
2023/02/15 01:06:39;;;;;;;82.90;18.13;;;;;;;2.72;68.95;99362.69;8415448;28;20236;-67
2023/02/15 01:10:43;;;;;;;20.70;15.70;;;;;;;3.70;67.37;99362.59;8423221;28;20220;-67
2023/02/15 01:14:46;;;;;;;32.97;16.83;;;;;;;2.85;68.78;99361.09;8414970;28;20228;-67
2023/02/15 01:18:50;;;;;;;17.77;15.13;;;;;;;3.22;67.67;99346.91;8415257;28;20231;-67
2023/02/15 01:22:54;;;;;;;40.57;16.83;;;;;;;3.20;68.00;99353.72;8414824;28;20233;-67
2023/02/15 01:26:56;;;;;;;18.90;15.00;;;;;;;3.05;68.65;99351.06;8414769;28;20232;-67
2023/02/15 01:30:59;;;;;;;23.77;16.67;;;;;;;3.29;67.54;99350.38;8414436;28;20232;-66
2023/02/15 01:35:04;;;;;;;43.20;16.67;;;;;;;2.45;69.40;99337.72;8414349;28;20228;-67
2023/02/15 01:39:09;;;;;;;38.63;16.13;;;;;;;2.03;71.31;99332.13;8414470;28;20231;-66
2023/02/15 01:43:13;;;;;;;41.73;17.20;;;;;;;2.52;70.36;99296.00;8413918;28;20243;-67
2023/02/15 01:47:17;;;;;;;34.20;16.53;;;;;;;2.57;67.79;99253.44;8414050;28;20229;-67
2023/02/15 01:51:24;;;;;;;24.87;16.23;;;;;;;2.29;71.07;99321.34;8413908;28;20224;-67
2023/02/15 01:55:31;;;;;;;24.47;15.43;;;;;;;3.18;67.02;99321.28;8413869;28;20335;-68
2023/02/15 01:59:36;;;;;;;53.90;15.73;;;;;;;2.59;67.71;99313.13;8413726;28;20528;-67
2023/02/15 02:03:45;;;;;;;22.33;15.57;;;;;;;3.37;66.20;99315.44;8413177;28;20255;-67
2023/02/15 02:07:52;;;;;;;22.17;15.50;;;;;;;4.01;64.16;99308.91;8412933;28;20235;-66
2023/02/15 02:11:55;;;;;;;21.50;16.23;;;;;;;4.10;61.96;99306.38;8412758;28;20442;-69
2023/02/15 02:16:03;;;;;;;19.67;16.10;;;;;;;3.76;64.23;99303.69;8412968;28;20250;-67
2023/02/15 02:20:27;;;;;;;15.87;14.03;;;;;;;4.30;61.65;99306.41;8412856;28;20377;-67
2023/02/15 02:25:06;;;;;;;19.57;14.47;;;;;;;4.00;62.84;99308.06;8411833;28;20559;-67
2023/02/15 02:29:48;;;;;;;30.57;14.37;;;;;;;3.28;64.80;99302.59;8411508;28;20212;-67
2023/02/15 02:34:00;;;;;;;16.93;14.73;;;;;;;3.08;65.08;99253.78;8411652;28;20250;-67
2023/02/15 02:38:10;;;;;;;60.63;15.67;;;;;;;2.63;67.11;99289.31;8411710;28;20298;-67
2023/02/15 02:42:17;;;;;;;28.13;15.33;;;;;;;3.38;64.44;99299.22;8411146;28;20232;-68
2023/02/15 02:46:22;;;;;;;27.60;16.00;;;;;;;2.68;68.45;99304.66;8411390;28;20325;-67
2023/02/15 02:50:28;;;;;;;21.63;16.13;;;;;;;2.94;65.81;99294.66;8411213;28;20495;-67
2023/02/15 02:54:32;;;;;;;16.50;14.27;;;;;;;3.68;64.85;99282.31;8411281;28;20231;-67
2023/02/15 02:58:40;;;;;;;23.43;14.10;;;;;;;3.30;64.28;99270.16;8411157;28;20228;-67
2023/02/15 03:02:45;;;;;;;28.87;16.13;;;;;;;2.51;67.53;99276.38;8410579;28;20231;-67
2023/02/15 03:06:51;;;;;;;26.40;15.67;;;;;;;2.81;67.83;99280.06;8410958;28;20318;-67
2023/02/15 03:10:57;;;;;;;18.43;15.03;;;;;;;3.08;66.52;99270.00;8411019;28;20232;-67
2023/02/15 03:15:02;;;;;;;31.87;16.10;;;;;;;3.77;63.06;99290.03;8411034;28;20649;-67
2023/02/15 03:19:12;;;;;;;25.63;16.17;;;;;;;2.89;66.84;99291.19;8411096;28;20239;-67
2023/02/15 03:23:19;;;;;;;23.27;15.60;;;;;;;3.70;63.79;99289.13;8410993;28;20232;-67
2023/02/15 03:27:25;;;;;;;17.20;15.27;;;;;;;4.17;62.54;99279.03;8410312;28;20228;-67
2023/02/15 03:31:29;;;;;;;16.67;14.63;;;;;;;4.01;62.71;99255.06;8411064;28;20523;-67
2023/02/15 03:35:37;;;;;;;18.40;14.97;;;;;;;4.10;61.74;99270.50;8411030;28;20374;-67
2023/02/15 03:39:46;;;;;;;20.73;15.70;;;;;;;4.39;61.39;99273.09;8411118;28;20243;-67
2023/02/15 03:43:52;;;;;;;17.60;15.03;;;;;;;4.56;60.46;99274.84;8410633;28;20228;-67
2023/02/15 03:47:57;;;;;;;16.23;14.20;;;;;;;4.61;60.56;99274.00;8411139;28;20228;-67
2023/02/15 03:52:01;;;;;;;17.73;15.17;;;;;;;4.56;60.10;99283.38;8410944;28;20232;-67
2023/02/15 03:56:05;;;;;;;19.77;15.87;;;;;;;4.42;60.50;99278.25;8410529;28;20249;-68
2023/02/15 04:04:35;;;;;;;18.17;15.67;;;;;;;4.54;60.52;99289.38;8410312;28;20302;-67
2023/02/15 04:13:00;;;;;;;15.50;13.23;;;;;;;4.56;59.64;99292.81;8409900;28;20423;-67
2023/02/15 04:17:06;;;;;;;18.17;14.47;;;;;;;4.31;60.10;99297.88;8410066;28;20231;-67
2023/02/15 04:25:29;;;;;;;16.57;13.73;;;;;;;4.47;59.62;99291.94;8410136;28;20233;-67
2023/02/15 04:29:33;;;;;;;25.70;14.17;;;;;;;2.98;61.78;99155.63;8410271;28;20228;-67
2023/02/15 04:33:36;;;;;;;18.93;15.53;;;;;;;4.14;61.26;99287.59;8410052;28;20232;-67
2023/02/15 04:37:39;;;;;;;17.43;15.20;;;;;;;3.91;60.91;99285.81;8410320;28;20418;-67
2023/02/15 04:41:42;;;;;;;18.93;13.53;;;;;;;3.47;62.49;99295.88;8414978;28;20227;-67
2023/02/15 04:45:50;;;;;;;56.40;14.23;;;;;;;3.25;63.74;99289.75;8415513;28;20251;-67
2023/02/15 04:49:53;;;;;;;15.27;12.80;;;;;;;3.24;63.83;99290.63;8415574;28;20232;-67
2023/02/15 04:53:58;;;;;;;17.60;12.53;;;;;;;3.13;63.39;99281.13;8415220;28;20232;-67
2023/02/15 04:58:01;;;;;;;14.00;12.40;;;;;;;3.38;64.05;99283.84;8415097;28;20239;-67
2023/02/15 05:02:05;;;;;;;13.73;11.83;;;;;;;3.45;62.58;99267.69;8415021;28;20441;-67
2023/02/15 05:06:08;;;;;;;14.20;12.43;;;;;;;2.84;64.45;99257.91;8414945;28;20232;-67
2023/02/15 05:10:11;;;;;;;13.30;11.23;;;;;;;3.81;61.97;99263.56;8415032;28;20231;-67
2023/02/15 05:14:14;;;;;;;14.67;11.87;;;;;;;3.63;62.16;99264.34;8414772;28;20239;-67
2023/02/15 05:18:19;;;;;;;23.30;13.53;;;;;;;2.92;64.51;99263.09;8414673;28;20231;-67
2023/02/15 05:22:22;;;;;;;19.63;12.97;;;;;;;2.57;64.30;99262.78;8414660;28;20228;-68
2023/02/15 05:30:45;;;;;;;18.10;12.80;;;;;;;2.71;64.00;99251.00;8447409;28;20224;-67
2023/02/15 05:34:50;;;;;;;19.27;12.73;;;;;;;2.44;65.39;99255.03;8447416;28;20341;-67
2023/02/15 05:38:53;;;;;;;20.27;13.40;;;;;;;1.98;66.27;99221.38;8447097;28;20231;-67
2023/02/15 05:42:57;;;;;;;14.10;11.77;;;;;;;2.82;65.13;99246.81;8446881;28;20223;-67
2023/02/15 05:46:59;;;;;;;25.67;13.77;;;;;;;1.76;67.75;99240.72;8447017;28;20232;-67
2023/02/15 05:51:05;;;;;;;13.73;11.53;;;;;;;2.84;65.55;99247.69;8446412;28;20550;-67
2023/02/15 05:55:09;;;;;;;14.03;11.90;;;;;;;3.23;63.35;99245.34;8446621;28;20223;-68
2023/02/15 05:59:12;;;;;;;15.17;12.57;;;;;;;2.86;64.22;99232.34;8446771;28;20228;-68
2023/02/15 06:03:15;;;;;;;21.37;12.40;;;;;;;1.58;67.67;99233.69;8446095;28;20430;-68
2023/02/15 06:07:19;;;;;;;19.70;13.47;;;;;;;1.68;68.38;99239.78;8446630;28;20262;-68
2023/02/15 06:11:23;;;;;;;13.90;11.83;;;;;;;2.83;64.49;99247.66;8446566;28;20227;-68
2023/02/15 06:15:25;;;;;;;13.57;11.57;;;;;;;2.38;66.29;99237.09;8446674;28;20342;-67
2023/02/15 06:19:28;;;;;;;15.70;12.60;;;;;;;2.32;65.84;99252.34;8446168;28;20538;-67
2023/02/15 06:23:32;;;;;;;18.97;13.70;;;;;;;2.15;65.85;99254.72;8445933;28;20235;-68
2023/02/15 06:27:35;;;;;;;14.33;11.90;;;;;;;2.54;63.98;99208.22;8445920;28;20234;-67
2023/02/15 06:31:38;;;;;;;20.43;12.17;;;;;;;2.45;64.17;99240.53;8445442;28;20227;-67
2023/02/15 06:35:41;;;;;;;30.00;14.20;;;;;;;1.73;67.25;99231.31;8411658;28;20228;-67
2023/02/15 06:39:45;;;;;;;21.53;16.17;;;;;;;1.26;70.00;99254.56;8411809;28;20216;-68
2023/02/15 06:43:48;;;;;;;18.33;14.20;;;;;;;1.97;66.30;99263.06;8417121;28;20228;-67
2023/02/15 06:47:51;;;;;;;18.07;14.57;;;;;;;1.93;66.53;99262.19;8412244;28;20232;-67
2023/02/15 06:51:53;;;;;;;19.20;14.83;;;;;;;1.71;67.73;99265.31;8412058;28;20564;-68
2023/02/15 06:56:06;;;;;;;18.20;14.50;;;;;;;1.21;68.08;99240.03;8411278;28;20235;-67
2023/02/15 07:00:10;;;;;;;20.03;14.70;;;;;;;1.06;69.52;99261.91;8410643;28;20216;-67
2023/02/15 07:04:12;;;;;;;29.00;15.80;;;;;;;1.15;69.41;99261.22;8411002;28;20258;-68
2023/02/15 07:08:15;;;;;;;17.37;14.40;;;;;;;2.61;65.96;99267.09;8411454;28;20239;-68
2023/02/15 07:16:40;;;;;;;19.63;15.80;;;;;;;2.49;64.57;99273.81;8411270;28;20400;-68
2023/02/15 07:20:42;;;;;;;22.23;15.13;;;;;;;1.88;67.00;99263.81;8410370;28;20232;-67
2023/02/15 07:24:45;;;;;;;19.43;15.17;;;;;;;2.43;64.71;99252.44;8410683;28;20243;-67
2023/02/15 07:28:49;;;;;;;18.97;15.10;;;;;;;2.37;64.49;99254.97;8411112;28;20417;-67
2023/02/15 07:37:16;;;;;;;21.47;16.13;;;;;;;2.26;64.98;99258.25;8410999;28;20230;-67
2023/02/15 07:41:19;;;;;;;18.47;14.53;;;;;;;3.29;62.14;99256.50;8410983;28;20531;-67
2023/02/15 07:45:23;;;;;;;18.07;14.57;;;;;;;3.18;62.78;99260.72;8410502;28;20220;-68
2023/02/15 07:49:26;;;;;;;17.33;14.50;;;;;;;3.31;61.54;99249.69;8410625;28;20239;-67
2023/02/15 07:53:29;;;;;;;26.23;14.93;;;;;;;2.79;61.99;99261.28;8410634;28;20224;-67
2023/02/15 07:57:32;;;;;;;37.20;16.80;;;;;;;2.35;64.07;99266.00;8410571;28;20232;-68
2023/02/15 08:01:37;;;;;;;17.17;14.13;;;;;;;2.75;63.48;99245.03;8410452;28;20232;-67
2023/02/15 08:05:41;;;;;;;17.97;15.20;;;;;;;2.72;63.25;99255.25;8409930;28;20232;-67
2023/02/15 08:09:44;;;;;;;22.20;15.63;;;;;;;2.77;62.03;99260.41;8409648;28;20247;-68
2023/02/15 08:13:53;;;;;;;24.53;16.10;;;;;;;2.24;65.46;99259.09;8414002;28;20244;-67
2023/02/15 08:17:57;;;;;;;18.27;14.40;;;;;;;3.04;62.75;99270.00;8416132;28;20229;-67
2023/02/15 08:22:01;;;;;;;18.17;15.43;;;;;;;3.58;59.92;99265.16;8416262;28;20546;-67
2023/02/15 08:26:05;;;;;;;19.80;15.30;;;;;;;3.85;59.93;99272.13;8416060;28;20354;-68
2023/02/15 08:30:08;;;;;;;20.20;15.13;;;;;;;3.54;60.25;99271.97;8416062;28;20281;-67
2023/02/15 08:34:17;;;;;;;42.73;33.87;;;;;;;2.85;61.61;99257.06;8416054;28;20248;-67
2023/02/15 08:38:20;;;;;;;29.57;26.03;;;;;;;3.13;61.70;99260.66;8415653;28;20221;-67
2023/02/15 08:42:23;;;;;;;19.43;14.77;;;;;;;3.81;60.07;99244.75;8414715;28;20224;-68
2023/02/15 08:46:27;;;;;;;18.80;15.17;;;;;;;4.16;58.30;99252.53;8414551;28;20238;-68
2023/02/15 08:50:31;;;;;;;18.77;14.87;;;;;;;4.17;58.11;99254.28;8414710;28;20224;-68
2023/02/15 08:54:34;;;;;;;18.20;15.20;;;;;;;4.31;57.95;99239.75;8414693;28;20235;-68
2023/02/15 08:58:37;;;;;;;20.27;16.00;;;;;;;2.35;62.52;99242.16;8414886;28;20423;-68
2023/02/15 09:02:40;;;;;;;18.67;14.90;;;;;;;3.68;60.05;99246.44;8414460;28;20224;-68
2023/02/15 09:06:45;;;;;;;19.47;15.67;;;;;;;3.30;60.55;99239.44;8413757;28;20293;-68
2023/02/15 09:10:50;;;;;;;20.60;16.30;;;;;;;3.09;60.66;99253.81;8414034;28;20228;-68
2023/02/15 09:14:53;;;;;;;22.97;17.47;;;;;;;2.80;63.81;99256.19;8414198;28;20527;-68
2023/02/15 09:18:57;;;;;;;21.97;16.87;;;;;;;3.00;62.01;99229.88;8414039;28;20235;-69
2023/02/15 09:23:01;;;;;;;22.43;15.63;;;;;;;6.94;88.83;99267.94;8413486;28;20232;-68
2023/02/15 09:27:04;;;;;;;15.77;13.20;;;;;;;4.64;67.18;99260.28;8413084;28;20541;-68
2023/02/15 09:31:11;;;;;;;19.33;16.17;;;;;;;5.09;57.44;99263.69;8413787;28;20228;-68
2023/02/15 09:35:14;;;;;;;19.47;16.43;;;;;;;4.53;57.59;99269.69;8413547;28;20237;-68
2023/02/15 09:39:19;;;;;;;19.13;14.97;;;;;;;4.92;57.23;99273.13;8413486;28;20216;-68
2023/02/15 09:43:30;;;;;;;21.37;16.77;;;;;;;4.66;57.01;99269.72;8413384;28;20303;-68
2023/02/15 09:47:50;;;;;;;20.40;16.70;;;;;;;4.22;58.19;99262.81;8413231;28;20229;-68
2023/02/15 09:52:03;;;;;;;23.00;18.33;;;;;;;4.21;58.71;99271.38;8412756;28;20454;-69
2023/02/15 09:56:12;;;;;;;20.57;16.00;;;;;;;4.33;58.64;99267.13;8412946;28;20250;-67
2023/02/15 10:00:20;;;;;;;22.13;16.47;;;;;;;4.44;57.82;99266.28;8412559;28;20243;-68
2023/02/15 10:04:37;;;;;;;21.60;16.37;;;;;;;4.33;58.44;99264.56;8412278;28;20273;-68
2023/02/15 10:09:05;;;;;;;20.47;16.13;;;;;;;4.39;57.85;99262.00;8412256;28;20233;-68
2023/02/15 10:13:25;;;;;;;17.97;14.83;;;;;;;4.49;57.97;99266.28;8445729;28;20227;-67
2023/02/15 10:17:43;;;;;;;20.90;16.23;;;;;;;2.48;63.63;99264.44;8445648;28;20303;-67
2023/02/15 10:21:55;;;;;;;18.37;15.47;;;;;;;3.95;60.10;99255.91;8445054;28;20230;-68
2023/02/15 10:26:03;;;;;;;17.13;14.00;;;;;;;4.02;60.43;99247.41;8445316;28;20236;-68
2023/02/15 10:30:11;;;;;;;18.87;15.23;;;;;;;3.94;59.89;99230.28;8445261;28;20419;-68
2023/02/15 10:34:17;;;;;;;20.13;15.50;;;;;;;3.01;62.17;99232.44;8445201;28;20400;-68
2023/02/15 10:38:25;;;;;;;19.98;17.95;;;;;;;3.19;62.04;99221.44;8443422;28;20749;-68
2023/02/15 10:42:32;;;;;;;22.60;17.70;;;;;;;2.73;63.76;99216.03;8444977;28;20283;-68
2023/02/15 10:46:57;;;;;;;18.37;15.10;;;;;;;3.83;60.49;99213.19;8444952;28;20230;-68
2023/02/15 10:51:01;;;;;;;19.23;16.00;;;;;;;2.79;62.09;99205.84;8444594;28;20223;-67
2023/02/15 10:55:10;;;;;;;19.73;15.33;;;;;;;3.10;62.56;99203.47;8444698;28;20458;-68
2023/02/15 10:59:31;;;;;;;18.23;14.77;;;;;;;3.70;60.96;99199.47;8444715;28;20227;-68
2023/02/15 11:03:50;;;;;;;19.57;15.37;;;;;;;3.90;60.40;99216.59;8444506;28;20232;-68
2023/02/15 11:07:56;;;;;;;20.23;15.83;;;;;;;3.36;62.43;99211.28;8418765;28;20236;-68
2023/02/15 11:12:00;;;;;;;19.97;15.23;;;;;;;3.98;60.63;99202.09;8410946;28;20239;-68
2023/02/15 11:16:05;;;;;;;19.53;14.80;;;;;;;3.44;61.11;99185.72;8411045;28;20412;-68
2023/02/15 11:20:17;;;;;;;19.17;14.37;;;;;;;3.55;61.68;99196.00;8410752;28;20252;-68
2023/02/15 11:24:21;;;;;;;18.03;14.90;;;;;;;4.39;58.84;99187.59;8410576;28;20464;-68
2023/02/15 11:28:31;;;;;;;19.67;15.33;;;;;;;3.90;61.22;99191.84;8410120;28;20265;-68
2023/02/15 11:32:35;;;;;;;18.07;14.97;;;;;;;4.05;61.33;99188.44;8410474;28;20265;-67
2023/02/15 11:36:41;;;;;;;18.87;14.77;;;;;;;5.00;57.63;99181.56;8410217;28;20240;-69
2023/02/15 11:40:48;;;;;;;18.23;13.13;;;;;;;4.05;58.30;99054.28;8409860;28;20232;-68
2023/02/15 11:44:57;;;;;;;16.67;13.73;;;;;;;4.33;59.57;99167.94;8409847;28;20235;-68
2023/02/15 11:49:01;;;;;;;18.00;14.20;;;;;;;4.86;58.04;99173.88;8414711;28;20315;-68
2023/02/15 11:53:10;;;;;;;16.70;14.30;;;;;;;4.94;57.35;99138.78;8416872;28;20224;-68
2023/02/15 11:57:17;;;;;;;16.53;13.60;;;;;;;5.34;57.57;99161.75;8416931;28;20229;-68
2023/02/15 12:01:24;;;;;;;18.57;14.30;;;;;;;5.64;56.26;99171.03;8416660;28;20252;-67
2023/02/15 12:05:27;;;;;;;17.77;14.47;;;;;;;4.79;59.06;99147.38;8416005;28;20236;-68
2023/02/15 12:09:35;;;;;;;20.93;15.37;;;;;;;5.04;57.84;99148.16;8415977;28;20273;-67
2023/02/15 12:13:54;;;;;;;23.30;16.13;;;;;;;4.48;58.98;99126.91;8416252;28;20528;-67
2023/02/15 12:17:57;;;;;;;19.17;15.20;;;;;;;4.74;59.20;99117.44;8415746;28;20247;-67
2023/02/15 12:22:02;;;;;;;18.93;14.77;;;;;;;4.07;62.11;99129.47;8415698;28;20224;-67
2023/02/15 12:26:06;;;;;;;19.07;15.17;;;;;;;4.16;60.72;99133.75;8415507;28;20512;-68
2023/02/15 12:30:18;;;;;;;18.17;14.73;;;;;;;5.32;58.49;99132.66;8415811;28;20251;-69
2023/02/15 12:34:23;;;;;;;19.47;15.10;;;;;;;4.99;58.30;99147.31;8415549;28;20225;-68
2023/02/15 12:38:28;;;;;;;18.67;15.20;;;;;;;5.41;57.98;99134.34;8415496;28;20250;-68
2023/02/15 12:42:44;;;;;;;19.87;15.23;;;;;;;4.82;58.81;99131.97;8415282;28;20228;-68
2023/02/15 12:46:58;;;;;;;20.63;16.50;;;;;;;4.83;59.26;99136.22;8414652;28;20424;-68
2023/02/15 12:51:08;;;;;;;19.37;16.13;;;;;;;5.11;59.41;99120.75;8415128;28;22128;-68
2023/02/15 12:55:20;;;;;;;20.90;15.47;;;;;;;5.23;58.55;99120.69;8414675;28;20381;-69
2023/02/15 12:59:24;;;;;;;19.80;16.20;;;;;;;5.53;57.71;99108.56;8413305;28;20231;-67
2023/02/15 13:03:27;;;;;;;22.67;16.43;;;;;;;4.67;62.03;99093.50;8414191;28;20239;-67
2023/02/15 13:07:32;;;;;;;21.90;16.97;;;;;;;5.10;59.66;99093.34;8414509;28;20360;-68
2023/02/15 13:11:37;;;;;;;22.63;16.90;;;;;;;5.63;57.27;99078.50;8414242;28;20296;-68
2023/02/15 13:15:42;;;;;;;22.67;17.13;;;;;;;5.83;57.43;99101.53;8414436;28;20227;-69
2023/02/15 13:19:47;;;;;;;21.67;16.53;;;;;;;5.35;59.48;99098.38;8413740;28;20496;-69
2023/02/15 13:23:56;;;;;;;21.07;16.97;;;;;;;5.73;57.88;99095.59;8413692;28;20245;-67
2023/02/15 13:28:02;;;;;;;23.27;18.23;;;;;;;6.12;56.74;99098.75;8413915;28;20590;-70
2023/02/15 13:32:11;;;;;;;22.40;16.90;;;;;;;6.36;56.48;99091.69;8413730;28;20224;-69
2023/02/15 13:36:20;;;;;;;22.00;16.27;;;;;;;6.54;55.90;99090.66;8413733;28;20238;-69
2023/02/15 13:40:26;;;;;;;22.20;17.27;;;;;;;6.54;56.24;99085.50;8413785;28;20225;-69
2023/02/15 13:44:43;;;;;;;23.40;16.97;;;;;;;6.49;55.77;99080.41;8413578;28;20311;-69
2023/02/15 13:48:56;;;;;;;21.43;17.10;;;;;;;6.34;55.35;99067.69;8412834;28;20228;-69
2023/02/15 13:53:08;;;;;;;25.03;18.23;;;;;;;6.69;55.67;99095.66;8413343;28;20536;-66
2023/02/15 13:57:27;;;;;;;23.30;17.03;;;;;;;6.66;55.61;99087.94;8413282;28;20228;-67
2023/02/15 14:01:38;;;;;;;23.27;17.83;;;;;;;6.77;55.41;99073.25;8412823;28;20382;-67
2023/02/15 14:05:57;;;;;;;22.77;18.77;;;;;;;6.47;55.97;99066.69;8412030;28;20224;-67
2023/02/15 14:10:15;;;;;;;20.33;17.10;;;;;;;6.75;55.51;99079.28;8412266;28;20492;-67
2023/02/15 14:14:41;;;;;;;24.20;19.03;;;;;;;6.74;55.36;99072.41;8412351;28;20231;-68
2023/02/15 14:18:47;;;;;;;26.70;18.40;;;;;;;6.65;55.51;99078.53;8384071;28;20223;-68
2023/02/15 14:22:57;;;;;;;24.80;19.40;;;;;;;6.62;56.25;99075.97;8412469;28;20236;-67
2023/02/15 14:27:07;;;;;;;25.97;19.97;;;;;;;6.96;55.83;99073.03;8412639;28;20247;-67
2023/02/15 14:31:12;;;;;;;24.63;18.57;;;;;;;7.02;55.16;99078.09;8412850;28;20554;-67
2023/02/15 14:35:17;;;;;;;26.33;18.93;;;;;;;6.79;55.65;99062.94;8412520;28;20235;-68
2023/02/15 14:44:01;;;;;;;23.50;18.37;;;;;;;7.64;53.87;99052.34;8445370;28;20230;-68
2023/02/15 14:48:10;;;;;;;24.87;18.87;;;;;;;8.08;53.54;99048.22;8445391;28;20239;-69
2023/02/15 14:52:13;;;;;;;24.10;19.17;;;;;;;8.34;52.91;99052.91;8445244;28;20223;-67
2023/02/15 14:56:30;;;;;;;22.70;18.43;;;;;;;8.40;52.61;99055.38;8444998;28;20246;-68
2023/02/15 15:00:38;;;;;;;25.17;19.63;;;;;;;8.56;51.64;99047.38;8444779;28;20239;-67
2023/02/15 15:04:44;;;;;;;20.87;18.13;;;;;;;8.61;51.87;99045.59;8410710;28;20224;-66
2023/02/15 15:08:47;;;;;;;22.37;17.90;;;;;;;8.67;51.34;99042.03;8410725;28;20233;-67
2023/02/15 15:12:52;;;;;;;22.80;18.30;;;;;;;8.45;52.04;99046.72;8411145;28;20235;-67
2023/02/15 15:16:55;;;;;;;24.27;18.37;;;;;;;8.52;51.86;99043.16;8410962;28;20515;-67
2023/02/15 15:20:57;;;;;;;22.93;19.10;;;;;;;8.30;52.36;99043.53;8410520;28;20235;-67
2023/02/15 15:25:01;;;;;;;21.87;18.13;;;;;;;8.27;52.67;99033.25;8410070;28;20231;-66
2023/02/15 15:29:08;;;;;;;22.10;18.23;;;;;;;8.20;53.05;99035.09;8410481;28;20292;-67
2023/02/15 15:33:24;;;;;;;24.30;19.23;;;;;;;8.01;53.45;99032.00;8410600;28;20220;-67
2023/02/15 15:37:52;;;;;;;21.83;18.27;;;;;;;7.93;53.69;99036.41;8410738;28;20232;-67
2023/02/15 15:42:02;;;;;;;22.07;19.03;;;;;;;7.60;54.51;99019.78;8410590;28;20538;-68
2023/02/15 15:46:26;;;;;;;24.27;19.33;;;;;;;7.45;54.48;99010.53;8410777;28;20228;-67
2023/02/15 15:50:29;;;;;;;22.47;19.43;;;;;;;7.38;55.53;99025.22;8410271;28;20641;-67
2023/02/15 15:54:32;;;;;;;24.73;19.63;;;;;;;7.44;55.25;99024.28;8410391;28;20224;-67
2023/02/15 15:58:42;;;;;;;24.73;20.73;;;;;;;7.30;55.82;99026.22;8410289;28;20224;-67
2023/02/15 16:02:52;;;;;;;26.67;21.87;;;;;;;7.15;56.17;99019.56;8443095;28;20228;-66
2023/02/15 16:06:56;;;;;;;24.57;20.73;;;;;;;7.09;56.41;99017.06;8442973;28;20243;-67
2023/02/15 16:11:00;;;;;;;22.67;19.43;;;;;;;6.95;56.86;99012.94;8443048;28;20231;-69
2023/02/15 16:15:06;;;;;;;22.10;17.90;;;;;;;6.83;56.49;99016.53;8443631;28;20223;-69
2023/02/15 16:19:19;;;;;;;24.73;19.23;;;;;;;6.76;56.60;99016.59;8443611;28;20523;-66
2023/02/15 16:23:47;;;;;;;22.67;18.93;;;;;;;6.73;56.97;99029.53;8442683;28;20418;-67
2023/02/15 16:27:53;;;;;;;24.13;19.67;;;;;;;6.64;57.17;99030.47;8406685;28;20503;-67
2023/02/15 16:32:01;;;;;;;24.90;19.53;;;;;;;6.59;57.12;99030.53;8409734;28;20228;-68
2023/02/15 16:36:07;;;;;;;24.50;19.30;;;;;;;6.49;57.07;99031.50;8414918;28;20402;-67
2023/02/15 16:40:32;;;;;;;29.17;19.97;;;;;;;6.39;56.83;99035.91;8415251;28;20254;-67
2023/02/15 16:44:35;;;;;;;23.17;19.00;;;;;;;6.37;57.18;99034.22;8415488;28;20228;-67
2023/02/15 16:48:41;;;;;;;27.90;22.07;;;;;;;6.31;57.11;99042.00;8415280;28;20504;-66
2023/02/15 16:52:46;;;;;;;26.63;20.57;;;;;;;6.19;57.31;99028.41;8414283;28;20232;-67
2023/02/15 16:56:48;;;;;;;26.60;21.73;;;;;;;6.13;57.35;99025.00;8413605;28;20239;-67
2023/02/15 17:00:51;;;;;;;24.33;21.10;;;;;;;6.03;57.18;99013.97;8414559;28;20528;-66
2023/02/15 17:05:07;;;;;;;30.70;24.77;;;;;;;6.02;57.10;99036.25;8414810;28;20277;-66
2023/02/15 17:09:19;;;;;;;37.50;30.40;;;;;;;6.02;57.11;99033.69;8414431;28;20304;-67
2023/02/15 17:13:22;;;;;;;39.57;30.73;;;;;;;5.94;57.16;99038.03;8414875;28;20247;-67
2023/02/15 17:17:24;;;;;;;32.33;25.73;;;;;;;5.92;57.29;99028.59;8414450;28;20247;-67
2023/02/15 17:21:33;;;;;;;35.10;26.10;;;;;;;5.83;57.06;99044.97;8419741;28;20231;-67
2023/02/15 17:25:42;;;;;;;32.30;28.80;;;;;;;6.46;55.20;99028.97;8410117;28;20408;-67
2023/02/15 17:29:46;;;;;;;27.70;22.30;;;;;;;5.98;56.69;99039.72;8413871;28;20235;-67
2023/02/15 17:33:54;;;;;;;30.90;22.30;;;;;;;5.82;56.68;99056.09;8414193;28;20228;-68
2023/02/15 17:38:06;;;;;;;27.60;21.80;;;;;;;5.82;56.43;99046.66;8414014;28;20398;-68
2023/02/15 17:42:10;;;;;;;28.27;23.37;;;;;;;5.82;56.13;99045.81;8413734;28;20231;-68
2023/02/15 17:46:13;;;;;;;28.60;22.97;;;;;;;5.72;56.42;99052.75;8412432;28;20228;-68
2023/02/15 17:50:18;;;;;;;31.40;23.90;;;;;;;5.65;56.38;99058.78;8413482;28;20305;-67
2023/02/15 17:58:43;;;;;;;31.53;25.63;;;;;;;5.67;57.42;99055.38;8446347;28;20576;-67
2023/02/15 18:11:38;;;;;;;44.93;32.97;;;;;;;5.46;57.80;99048.66;8446069;28;20234;-68
2023/02/15 18:15:43;;;;;;;53.27;42.10;;;;;;;5.51;57.93;99056.31;8412301;28;20235;-67
2023/02/15 18:19:46;;;;;;;48.73;38.57;;;;;;;5.28;59.21;99046.19;8412612;28;20396;-68
2023/02/15 18:23:49;;;;;;;45.17;34.77;;;;;;;5.32;59.29;99047.88;8412351;28;20232;-69
2023/02/15 18:27:52;;;;;;;45.43;36.50;;;;;;;4.34;62.12;99038.88;8412288;28;20255;-69
2023/02/15 18:31:59;;;;;;;33.40;26.27;;;;;;;3.97;63.88;99041.47;8412351;28;20232;-69
2023/02/15 18:36:04;;;;;;;35.37;25.90;;;;;;;4.07;62.76;99002.16;8412354;28;20278;-69
2023/02/15 18:40:14;;;;;;;33.13;24.73;;;;;;;4.42;62.98;99046.56;8412294;28;20232;-69
2023/02/15 18:44:19;;;;;;;36.30;25.97;;;;;;;4.02;63.61;99051.72;8412309;28;20224;-69
2023/02/15 18:48:24;;;;;;;34.80;27.70;;;;;;;4.30;62.50;99045.72;8411779;28;20240;-69
2023/02/15 18:52:30;;;;;;;35.97;26.30;;;;;;;5.04;62.08;99053.16;8411431;28;20232;-69
2023/02/15 18:56:32;;;;;;;34.57;26.00;;;;;;;5.05;59.88;99049.72;8410591;28;20220;-69
2023/02/15 19:00:35;;;;;;;36.30;26.40;;;;;;;4.53;61.38;99042.22;8411198;28;20236;-69
2023/02/15 19:04:40;;;;;;;34.23;25.87;;;;;;;4.53;61.59;99047.34;8411016;28;20228;-69
2023/02/15 19:08:44;;;;;;;34.10;25.73;;;;;;;4.26;62.50;99069.63;8410315;28;20224;-68
2023/02/15 19:12:48;;;;;;;38.63;26.93;;;;;;;5.45;77.17;99059.78;8411022;28;20233;-70
2023/02/15 19:16:51;;;;;;;35.33;27.30;;;;;;;5.05;62.17;99047.16;8410556;28;20236;-70
2023/02/15 19:20:55;;;;;;;28.30;22.70;;;;;;;6.44;62.55;99038.44;8410627;28;20243;-70
2023/02/15 19:25:01;;;;;;;34.30;26.10;;;;;;;3.85;63.59;99008.16;8411149;28;20239;-69
2023/02/15 19:29:04;;;;;;;37.57;28.13;;;;;;;3.75;65.52;99030.38;8410539;28;20224;-68
2023/02/15 19:33:15;;;;;;;37.57;27.07;;;;;;;3.56;68.07;99032.09;8411078;28;20237;-68
2023/02/15 19:37:24;;;;;;;41.03;28.03;;;;;;;3.56;67.15;99036.31;8410871;28;20559;-68
2023/02/15 19:41:30;;;;;;;54.40;30.67;;;;;;;2.70;68.79;98990.91;8410947;28;20243;-68
2023/02/15 19:45:34;;;;;;;47.70;30.10;;;;;;;3.96;65.48;99026.97;8410972;28;20562;-68
2023/02/15 19:49:37;;;;;;;57.90;31.47;;;;;;;2.93;69.06;99031.91;8410572;28;20228;-68